KFYE

Fayette County Airport

Somerville, Tennessee, USA
METAR KFYE 190755Z AUTO 00000KT 10SM FEW032 02/01 A3003 RMK A01
Observed Flight Rules
Dec-19 @ 07:55 UTC (37 minutes ago) Visual Flight Rules
Visibility Clouds
10 miles
  • Few at 3,200' AGL
Temperatures Readings
Current 2°C / 36°F
Dewpoint 1°C / 34°F
Humidity 93%
Altimeter 30.03" Hg
Pressure 1017 hPa
Elevation 133
METAR KFYE 190755Z AUTO 00000KT 10SM FEW032 02/01 A3003 RMK A01
Observed Flight Rules
Dec-19 @ 07:55 UTC
(37 minutes ago)
VFR
Clouds
  • Few at 3,200' AGL
Temperature Dewpoint
2°C / 36°F 1°C / 34°F
Humidity Altimeter Pressure
93% 30.03" Hg 1017 hPa